Flugplatz Nabern/Teck

EDTN · 巴登-符腾堡, 德国

罗盘
风向 的 Nabern/Teck Airport 14/32
风: 2 kt, 1 beaufort

1 kt

1 kt
改变
0 1.000 2.000 3.000 4.000 5.000
FEW 500 ft
BKN 800 ft
OVC 1.600 ft
METAR EDDS 021450Z AUTO VRB02KT 9999 -DZ FEW005 BKN008 OVC016 03/02 Q1016 NOSIG

METAR Nabern/Teck Airport - EDTN

Nabern/Teck Airport是,德国中的小机场。 该机场有一条跑道: 14/32. 该领域的国际民航组织标志是EDTN.

这份报告是针对2022年12月2日 15:50, 当地时间在Stuttgart Airport进行的。

机场观察

可变方向的风很小或没有风。

可见度为10 km 或者更多。

有几云在500 ft的高度, 碎云在800 ft的高度 和 乌云密布在1.600 ft的高度。 破损或更高的上限为800 ft。

当前天气为光 细雨。 温度为3 °C,阵风为1 °C。 露点为2 °C,相对湿度为93%。 海平面上的气压为1016 hPa (QNH)。

白天

今天,太阳从07:54升起,在16:28降落。 这适用于Nabern/Teck Airport,世界夏令时可能有所不同。 当地时间与世界标准时间之间的时差为+1 小时。 当前,没有夏令时有效。

公司介绍

我们没有关于这个机场的公司信息。

体会

到Vliegles.nl去找飞行课程,跳伞和其他飞行体验。 浏览页面,了解Nabern/Teck Airport附近所有可用的活动。 你也可以使用搜索功能来寻找你所在地附近的特定飞行课程、跳伞或其他飞行体验。

跑道

Id 标题 侧风 逆风 侧风 %
14/32 135°-315° 1 kt 1 kt 71 %

逆风成分最大的方向会被突出显示,并用于横风计算。 这并不一定意味着这个方向在使用。

乌云

500 ft FEW 几云
800 ft BKN 碎云
1.600 ft OVC 乌云密布

温度 & 天气

天气 光 细雨
温度 3 °C
露点 2 °C
相对湿度 93%
风寒 1 °C
Kp-index 0 (0-9)

白天

日出
07:55
中午
12:12
日落
16:29 (10m)

小工具

你想在你的网站上有一个关于Nabern/Teck Airport的当前航空天气(METAR)的小部件吗?

显示HTML代码

我们和第三方通过cookies跟踪您在我们网站上的互联网行为。如果你继续,我们认为你同意我们的饼干政策